createdAt,value
2023-02-19T00:00:20.551Z,1008.80
2023-02-19T00:01:20.516Z,1008.82
2023-02-19T00:02:20.580Z,1008.76
2023-02-19T00:03:20.509Z,1008.80
2023-02-19T00:04:20.507Z,1008.83
2023-02-19T00:05:20.473Z,1008.79
2023-02-19T00:06:20.491Z,1008.80
2023-02-19T00:07:20.455Z,1008.79
2023-02-19T00:08:20.947Z,1008.78
2023-02-19T00:09:20.445Z,1008.74
2023-02-19T00:10:20.455Z,1008.82
2023-02-19T00:11:20.412Z,1008.89
2023-02-19T00:12:20.423Z,1008.82
2023-02-19T00:13:20.402Z,1008.81
2023-02-19T00:14:20.410Z,1008.77
2023-02-19T00:15:20.408Z,1008.79
2023-02-19T00:16:20.387Z,1008.83
2023-02-19T00:17:20.337Z,1008.91
2023-02-19T00:18:20.350Z,1008.91
2023-02-19T00:19:20.371Z,1008.84
2023-02-19T00:20:20.327Z,1008.87
2023-02-19T00:21:20.299Z,1008.91
2023-02-19T00:22:20.316Z,1008.91
2023-02-19T00:23:20.305Z,1008.89
2023-02-19T00:24:20.288Z,1008.93
2023-02-19T00:25:20.282Z,1008.89
2023-02-19T00:26:20.294Z,1008.86
2023-02-19T00:27:20.238Z,1008.90
2023-02-19T00:28:20.244Z,1008.72
2023-02-19T00:29:20.235Z,1008.91
2023-02-19T00:30:20.258Z,1008.89
2023-02-19T00:31:20.401Z,1008.91
2023-02-19T00:32:20.220Z,1008.94
2023-02-19T00:33:20.177Z,1008.91
2023-02-19T00:34:20.200Z,1008.97
2023-02-19T00:35:20.156Z,1008.90
2023-02-19T00:36:20.163Z,1008.92
2023-02-19T00:37:20.169Z,1008.94
2023-02-19T00:38:20.142Z,1008.94
2023-02-19T00:39:20.114Z,1008.91
2023-02-19T00:40:20.127Z,1008.93
2023-02-19T00:41:20.116Z,1008.89
2023-02-19T00:42:20.099Z,1009.00
2023-02-19T00:43:20.144Z,1008.85
2023-02-19T00:44:20.082Z,1008.86
2023-02-19T00:45:20.117Z,1008.80
2023-02-19T00:46:20.132Z,1008.84
2023-02-19T00:47:20.023Z,1008.82
2023-02-19T00:48:20.045Z,1008.79
2023-02-19T00:49:20.046Z,1008.75
2023-02-19T00:50:20.018Z,1008.77
2023-02-19T00:51:20.010Z,1008.80
2023-02-19T00:52:19.996Z,1008.71
2023-02-19T00:53:19.963Z,1008.71
2023-02-19T00:54:20.008Z,1008.68
2023-02-19T00:55:19.990Z,1008.68
2023-02-19T00:56:19.958Z,1008.68
2023-02-19T00:57:19.921Z,1008.71
2023-02-19T00:58:19.940Z,1008.73
2023-02-19T00:59:19.923Z,1008.72
2023-02-19T01:00:19.908Z,1008.72
2023-02-19T01:01:19.988Z,1008.74
2023-02-19T01:02:19.872Z,1008.79
2023-02-19T01:03:19.926Z,1008.78
2023-02-19T01:04:19.898Z,1008.80
2023-02-19T01:05:19.855Z,1008.78
2023-02-19T01:06:19.820Z,1008.79
2023-02-19T01:07:19.885Z,1008.79
2023-02-19T01:08:19.802Z,1008.79
2023-02-19T01:09:19.832Z,1008.82
2023-02-19T01:10:19.780Z,1008.78
2023-02-19T01:11:19.797Z,1008.78
2023-02-19T01:12:19.759Z,1008.79
2023-02-19T01:13:19.804Z,1008.77
2023-02-19T01:14:19.741Z,1008.82
2023-02-19T01:15:19.765Z,1008.82
2023-02-19T01:16:19.774Z,1008.79
2023-02-19T01:17:19.725Z,1008.81
2023-02-19T01:18:19.698Z,1008.87
2023-02-19T01:19:19.756Z,1008.89
2023-02-19T01:20:19.675Z,1008.77
2023-02-19T01:21:19.696Z,1008.77
2023-02-19T01:22:19.658Z,1008.80
2023-02-19T01:23:19.672Z,1008.77
2023-02-19T01:24:19.647Z,1008.82
2023-02-19T01:25:19.658Z,1008.79
2023-02-19T01:26:19.602Z,1008.87
2023-02-19T01:27:19.643Z,1008.73
2023-02-19T01:28:19.610Z,1008.79
2023-02-19T01:29:19.610Z,1008.79
2023-02-19T01:30:19.608Z,1008.77
2023-02-19T01:31:19.681Z,1008.78
2023-02-19T01:32:19.604Z,1008.81
2023-02-19T01:33:19.550Z,1008.78
2023-02-19T01:34:19.545Z,1008.77
2023-02-19T01:35:19.533Z,1008.73
2023-02-19T01:36:19.501Z,1008.73
2023-02-19T01:37:19.524Z,1008.71
2023-02-19T01:38:19.513Z,1008.72
2023-02-19T01:39:19.491Z,1008.73
2023-02-19T01:40:19.491Z,1008.70
2023-02-19T01:41:19.486Z,1008.73
2023-02-19T01:42:19.444Z,1008.71
2023-02-19T01:43:19.485Z,1008.73
2023-02-19T01:44:19.413Z,1008.72
2023-02-19T01:45:19.441Z,1008.73
2023-02-19T01:46:19.508Z,1008.70
2023-02-19T01:47:19.403Z,1008.70
2023-02-19T01:48:19.385Z,1008.66
2023-02-19T01:49:19.435Z,1008.63
2023-02-19T01:50:19.351Z,1008.62
2023-02-19T01:51:19.372Z,1008.64
2023-02-19T01:52:19.340Z,1008.64
2023-02-19T01:53:19.358Z,1008.63
2023-02-19T01:54:19.319Z,1008.62
2023-02-19T01:55:19.384Z,1008.61
2023-02-19T01:56:19.305Z,1008.63
2023-02-19T01:57:19.336Z,1008.61
2023-02-19T01:58:19.297Z,1008.63
2023-02-19T01:59:19.295Z,1008.57
2023-02-19T02:00:19.250Z,1008.56
2023-02-19T02:01:19.281Z,1008.60
2023-02-19T02:02:19.245Z,1008.56
2023-02-19T02:03:19.266Z,1008.62
2023-02-19T02:04:19.224Z,1008.60
2023-02-19T02:05:19.222Z,1008.57
2023-02-19T02:06:19.194Z,1008.58
2023-02-19T02:07:19.212Z,1008.58
2023-02-19T02:08:19.183Z,1008.54
2023-02-19T02:09:19.179Z,1008.60
2023-02-19T02:10:19.152Z,1008.55
2023-02-19T02:11:19.159Z,1008.56
2023-02-19T02:12:19.126Z,1008.54
2023-02-19T02:13:19.190Z,1008.51
2023-02-19T02:14:19.117Z,1008.50
2023-02-19T02:15:19.113Z,1008.47
2023-02-19T02:16:19.155Z,1008.50
2023-02-19T02:17:19.098Z,1008.49
2023-02-19T02:18:19.067Z,1008.50
2023-02-19T02:19:19.107Z,1008.48
2023-02-19T02:20:19.038Z,1008.50
2023-02-19T02:21:19.056Z,1008.53
2023-02-19T02:22:19.020Z,1008.60
2023-02-19T02:23:19.027Z,1008.62
2023-02-19T02:24:18.996Z,1008.58
2023-02-19T02:25:19.027Z,1008.60
2023-02-19T02:26:18.972Z,1008.58
2023-02-19T02:27:18.988Z,1008.57
2023-02-19T02:28:18.948Z,1008.59
2023-02-19T02:29:18.963Z,1008.56
2023-02-19T02:30:18.994Z,1008.56
2023-02-19T02:31:19.050Z,1008.55
2023-02-19T02:32:18.988Z,1008.54
2023-02-19T02:33:18.938Z,1008.57
2023-02-19T02:34:18.892Z,1008.54
2023-02-19T02:35:18.908Z,1008.54
2023-02-19T02:36:18.865Z,1008.51
2023-02-19T02:37:18.905Z,1008.55
2023-02-19T02:38:18.843Z,1008.56
2023-02-19T02:39:18.869Z,1008.59
2023-02-19T02:40:18.840Z,1008.57
2023-02-19T02:41:18.863Z,1008.59
2023-02-19T02:42:18.809Z,1008.65
2023-02-19T02:43:18.838Z,1008.58
2023-02-19T02:44:18.790Z,1008.57
2023-02-19T02:45:18.818Z,1008.58
2023-02-19T02:46:18.769Z,1008.57
2023-02-19T02:47:18.770Z,1008.62
2023-02-19T02:48:18.745Z,1008.60
2023-02-19T02:49:18.788Z,1008.61
2023-02-19T02:50:18.718Z,1008.60
2023-02-19T02:51:18.730Z,1008.61
2023-02-19T02:52:18.695Z,1008.64
2023-02-19T02:53:18.721Z,1008.64
2023-02-19T02:54:18.678Z,1008.66
2023-02-19T02:55:18.703Z,1008.63
2023-02-19T02:56:18.659Z,1008.70
2023-02-19T02:57:18.662Z,1008.70
2023-02-19T02:58:18.642Z,1008.63
2023-02-19T02:59:18.642Z,1008.65
2023-02-19T03:00:18.619Z,1008.68
2023-02-19T03:01:18.683Z,1008.75
2023-02-19T03:02:18.640Z,1008.64
2023-02-19T03:03:18.619Z,1008.72
2023-02-19T03:04:18.573Z,1008.73
2023-02-19T03:05:18.587Z,1008.71
2023-02-19T03:06:18.544Z,1008.76
2023-02-19T03:07:18.598Z,1008.75
2023-02-19T03:08:18.529Z,1008.76
2023-02-19T03:09:18.548Z,1008.75
2023-02-19T03:10:18.503Z,1008.78
2023-02-19T03:11:18.521Z,1008.76
2023-02-19T03:12:18.490Z,1008.82
2023-02-19T03:13:18.514Z,1008.75
2023-02-19T03:14:18.464Z,1008.78
2023-02-19T03:15:18.484Z,1008.76
2023-02-19T03:16:18.549Z,1008.80
2023-02-19T03:17:18.474Z,1008.74
2023-02-19T03:18:18.438Z,1008.74
2023-02-19T03:19:18.466Z,1008.72
2023-02-19T03:20:18.403Z,1008.74
2023-02-19T03:21:18.412Z,1008.79
2023-02-19T03:22:18.376Z,1008.76
2023-02-19T03:23:18.389Z,1008.76
2023-02-19T03:24:18.364Z,1008.76
2023-02-19T03:25:18.396Z,1008.79
2023-02-19T03:26:18.339Z,1008.71
2023-02-19T03:27:18.346Z,1008.73
2023-02-19T03:28:18.310Z,1008.71
2023-02-19T03:29:18.321Z,1008.67
2023-02-19T03:30:18.448Z,1008.71
2023-02-19T03:31:18.415Z,1008.75
2023-02-19T03:32:18.342Z,1008.76
2023-02-19T03:33:18.288Z,1008.77
2023-02-19T03:34:18.251Z,1008.79
2023-02-19T03:35:18.258Z,1008.78
2023-02-19T03:36:18.229Z,1008.78
2023-02-19T03:37:18.263Z,1008.81
2023-02-19T03:38:18.203Z,1008.84
2023-02-19T03:39:18.213Z,1008.83
2023-02-19T03:40:18.184Z,1008.81
2023-02-19T03:41:18.207Z,1008.84
2023-02-19T03:42:18.189Z,1008.85
2023-02-19T03:43:18.189Z,1008.92
2023-02-19T03:44:18.141Z,1008.91
2023-02-19T03:45:18.175Z,1008.90
2023-02-19T03:46:18.120Z,1008.97
2023-02-19T03:47:18.141Z,1008.90
2023-02-19T03:48:18.116Z,1008.93
2023-02-19T03:49:18.125Z,1008.95
2023-02-19T03:50:18.076Z,1008.93
2023-02-19T03:51:18.087Z,1008.95
2023-02-19T03:52:18.063Z,1008.93
2023-02-19T03:53:18.071Z,1009.01
2023-02-19T03:54:18.064Z,1009.01
2023-02-19T03:55:18.071Z,1009.02
2023-02-19T03:56:18.031Z,1009.07
2023-02-19T03:57:18.058Z,1009.08
2023-02-19T03:58:18.027Z,1009.08
2023-02-19T03:59:18.006Z,1009.12
2023-02-19T04:00:17.982Z,1009.13
2023-02-19T04:01:18.008Z,1009.18
2023-02-19T04:02:17.969Z,1009.22
2023-02-19T04:03:17.963Z,1009.20
2023-02-19T04:04:18.021Z,1009.26
2023-02-19T04:05:17.942Z,1009.21
2023-02-19T04:06:17.929Z,1009.22
2023-02-19T04:07:17.948Z,1009.29
2023-02-19T04:08:17.893Z,1009.36
2023-02-19T04:09:17.901Z,1009.33
2023-02-19T04:10:17.867Z,1009.38
2023-02-19T04:11:17.879Z,1009.51
2023-02-19T04:12:17.852Z,1009.38
2023-02-19T04:13:17.881Z,1009.33
2023-02-19T04:14:17.836Z,1009.41
2023-02-19T04:15:17.837Z,1009.51
2023-02-19T04:16:17.858Z,1009.45
2023-02-19T04:17:17.838Z,1009.71
2023-02-19T04:18:17.802Z,1009.54
2023-02-19T04:19:17.821Z,1009.47
2023-02-19T04:20:17.765Z,1009.46
2023-02-19T04:21:17.781Z,1009.44
2023-02-19T04:22:17.764Z,1009.45
2023-02-19T04:23:17.757Z,1009.48
2023-02-19T04:24:17.728Z,1009.49
2023-02-19T04:25:17.765Z,1009.51
2023-02-19T04:26:17.742Z,1009.46
2023-02-19T04:27:17.734Z,1009.47
2023-02-19T04:28:17.677Z,1009.43
2023-02-19T04:29:17.694Z,1009.46
2023-02-19T04:30:17.719Z,1009.50
2023-02-19T04:31:17.810Z,1009.52
2023-02-19T04:32:17.654Z,1009.52
2023-02-19T04:33:17.628Z,1009.51
2023-02-19T04:34:17.641Z,1009.56
2023-02-19T04:35:17.614Z,1009.56
2023-02-19T04:36:17.615Z,1009.56
2023-02-19T04:37:17.613Z,1009.58
2023-02-19T04:38:17.586Z,1009.59
2023-02-19T04:39:17.566Z,1009.59
2023-02-19T04:40:17.568Z,1009.59
2023-02-19T04:41:17.534Z,1009.69
2023-02-19T04:42:17.556Z,1009.66
2023-02-19T04:43:17.528Z,1009.66
2023-02-19T04:44:17.535Z,1009.71
2023-02-19T04:45:17.494Z,1009.70
2023-02-19T04:46:17.606Z,1009.76
2023-02-19T04:47:17.481Z,1009.76
2023-02-19T04:48:17.499Z,1009.78
2023-02-19T04:49:17.490Z,1009.77
2023-02-19T04:50:17.462Z,1009.80
2023-02-19T04:51:17.436Z,1009.83
2023-02-19T04:52:17.451Z,1009.81
2023-02-19T04:53:17.408Z,1009.85
2023-02-19T04:54:17.420Z,1009.90
2023-02-19T04:55:17.412Z,1009.90
2023-02-19T04:56:17.400Z,1009.91
2023-02-19T04:57:17.374Z,1009.94
2023-02-19T04:58:17.373Z,1009.91
2023-02-19T04:59:17.344Z,1009.96
2023-02-19T05:00:17.354Z,1010.01
2023-02-19T05:01:17.366Z,1010.03
2023-02-19T05:02:17.362Z,1010.00
2023-02-19T05:03:17.299Z,1010.00
2023-02-19T05:04:17.361Z,1010.05
2023-02-19T05:05:17.286Z,1010.03
2023-02-19T05:06:17.304Z,1010.02
2023-02-19T05:07:17.285Z,1010.11
2023-02-19T05:08:17.268Z,1010.05
2023-02-19T05:09:17.240Z,1010.06
2023-02-19T05:10:17.250Z,1010.14
2023-02-19T05:11:17.234Z,1010.13
2023-02-19T05:12:17.242Z,1010.12
2023-02-19T05:13:17.220Z,1010.11
2023-02-19T05:14:17.235Z,1010.07
2023-02-19T05:15:17.198Z,1010.09
2023-02-19T05:16:17.169Z,1010.07
2023-02-19T05:17:17.189Z,1010.09
2023-02-19T05:18:17.145Z,1010.11
2023-02-19T05:19:17.180Z,1010.11
2023-02-19T05:20:17.127Z,1010.19
2023-02-19T05:21:17.145Z,1010.17
2023-02-19T05:22:17.104Z,1010.16
2023-02-19T05:23:17.110Z,1010.17
2023-02-19T05:24:17.086Z,1010.19
2023-02-19T05:25:17.116Z,1010.18
2023-02-19T05:26:17.101Z,1010.30
2023-02-19T05:27:17.069Z,1010.33
2023-02-19T05:28:17.112Z,1010.27
2023-02-19T05:29:17.049Z,1010.32
2023-02-19T05:30:17.074Z,1010.31
2023-02-19T05:31:17.133Z,1010.39
2023-02-19T05:32:17.073Z,1010.36
2023-02-19T05:33:17.014Z,1010.40
2023-02-19T05:34:16.977Z,1010.38
2023-02-19T05:35:16.985Z,1010.40
2023-02-19T05:36:16.961Z,1010.38
2023-02-19T05:37:16.988Z,1010.42
2023-02-19T05:38:17.025Z,1010.42
2023-02-19T05:39:16.937Z,1010.45
2023-02-19T05:40:16.904Z,1010.41
2023-02-19T05:41:16.936Z,1010.42
2023-02-19T05:42:16.898Z,1010.47
2023-02-19T05:43:16.910Z,1010.45
2023-02-19T05:44:16.867Z,1010.44
2023-02-19T05:45:16.877Z,1010.46
2023-02-19T05:46:16.898Z,1010.51
2023-02-19T05:47:16.859Z,1010.53
2023-02-19T05:48:16.826Z,1010.53
2023-02-19T05:49:16.921Z,1010.52
2023-02-19T05:50:16.809Z,1010.58
2023-02-19T05:51:16.813Z,1010.60
2023-02-19T05:52:16.778Z,1010.60
2023-02-19T05:53:16.813Z,1010.65
2023-02-19T05:54:16.759Z,1010.63
2023-02-19T05:55:16.798Z,1010.59
2023-02-19T05:56:16.740Z,1010.63
2023-02-19T05:57:16.747Z,1010.63
2023-02-19T05:58:16.714Z,1010.65
2023-02-19T05:59:16.746Z,1010.66
2023-02-19T06:00:16.702Z,1010.69
2023-02-19T06:01:16.728Z,1010.73
2023-02-19T06:02:16.683Z,1010.74
2023-02-19T06:03:16.697Z,1010.76
2023-02-19T06:04:16.655Z,1010.78
2023-02-19T06:05:16.683Z,1010.77
2023-02-19T06:06:16.629Z,1010.78
2023-02-19T06:07:16.662Z,1010.81
2023-02-19T06:08:16.611Z,1010.80
2023-02-19T06:09:16.649Z,1010.83
2023-02-19T06:10:16.590Z,1010.84
2023-02-19T06:11:16.598Z,1010.86
2023-02-19T06:12:16.566Z,1010.82
2023-02-19T06:13:17.851Z,1010.85
2023-02-19T06:14:16.573Z,1010.88
2023-02-19T06:15:16.563Z,1010.88
2023-02-19T06:16:16.548Z,1010.90
2023-02-19T06:17:16.542Z,1010.92
2023-02-19T06:18:16.502Z,1010.88
2023-02-19T06:19:16.548Z,1010.89
2023-02-19T06:20:16.485Z,1010.91
2023-02-19T06:21:16.502Z,1010.98
2023-02-19T06:22:16.462Z,1011.06
2023-02-19T06:23:16.479Z,1011.08
2023-02-19T06:24:16.440Z,1011.04
2023-02-19T06:25:16.475Z,1011.01
2023-02-19T06:26:16.427Z,1011.03
2023-02-19T06:27:16.443Z,1011.01
2023-02-19T06:28:16.404Z,1011.01
2023-02-19T06:29:16.416Z,1011.01
2023-02-19T06:30:16.447Z,1011.01
2023-02-19T06:31:16.500Z,1011.02
2023-02-19T06:32:16.515Z,1011.01
2023-02-19T06:33:16.368Z,1011.00
2023-02-19T06:34:16.335Z,1011.02
2023-02-19T06:35:16.350Z,1011.00
2023-02-19T06:36:16.324Z,1011.03
2023-02-19T06:37:16.359Z,1011.06
2023-02-19T06:38:17.005Z,1011.05
2023-02-19T06:39:16.305Z,1011.04
2023-02-19T06:40:16.297Z,1011.06
2023-02-19T06:41:16.315Z,1011.11
2023-02-19T06:42:16.256Z,1011.14
2023-02-19T06:43:16.286Z,1011.15
2023-02-19T06:44:16.234Z,1011.14
2023-02-19T06:45:16.250Z,1011.13
2023-02-19T06:46:16.309Z,1011.14
2023-02-19T06:47:16.224Z,1011.14
2023-02-19T06:48:16.192Z,1011.17
2023-02-19T06:49:16.226Z,1011.16
2023-02-19T06:50:16.169Z,1011.18
2023-02-19T06:51:16.189Z,1011.19
2023-02-19T06:52:16.152Z,1011.25
2023-02-19T06:53:16.175Z,1011.21
2023-02-19T06:54:16.140Z,1011.22
2023-02-19T06:55:16.165Z,1011.25
2023-02-19T06:56:16.105Z,1011.27
2023-02-19T06:57:16.158Z,1011.27
2023-02-19T06:58:16.084Z,1011.29
2023-02-19T06:59:16.097Z,1011.33
2023-02-19T07:00:16.060Z,1011.38
2023-02-19T07:01:16.183Z,1011.35
2023-02-19T07:02:16.045Z,1011.40
2023-02-19T07:03:16.055Z,1011.43
2023-02-19T07:04:16.191Z,1011.44
2023-02-19T07:05:16.033Z,1011.47
2023-02-19T07:06:15.994Z,1011.48
2023-02-19T07:07:16.038Z,1011.47
2023-02-19T07:08:15.981Z,1011.49
2023-02-19T07:09:15.985Z,1011.48
2023-02-19T07:10:15.948Z,1011.49
2023-02-19T07:11:15.973Z,1011.52
2023-02-19T07:12:15.937Z,1011.56
2023-02-19T07:13:15.967Z,1011.55
2023-02-19T07:14:15.919Z,1011.56
2023-02-19T07:15:15.919Z,1011.57
2023-02-19T07:16:15.899Z,1011.64
2023-02-19T07:17:15.898Z,1011.62
2023-02-19T07:18:15.868Z,1011.64
2023-02-19T07:19:15.907Z,1011.66
2023-02-19T07:20:15.854Z,1011.69
2023-02-19T07:21:15.856Z,1011.72
2023-02-19T07:22:15.822Z,1011.75
2023-02-19T07:23:15.837Z,1011.78
2023-02-19T07:24:15.803Z,1011.85
2023-02-19T07:25:15.828Z,1011.87
2023-02-19T07:26:15.798Z,1011.92
2023-02-19T07:27:15.805Z,1011.94
2023-02-19T07:28:15.758Z,1011.96
2023-02-19T07:29:15.845Z,1011.97
2023-02-19T07:30:15.836Z,1011.95
2023-02-19T07:31:15.969Z,1011.95
2023-02-19T07:32:15.720Z,1011.98
2023-02-19T07:33:15.727Z,1012.01
2023-02-19T07:34:15.702Z,1012.05
2023-02-19T07:35:15.720Z,1012.05
2023-02-19T07:36:15.683Z,1012.08
2023-02-19T07:37:15.709Z,1012.08
2023-02-19T07:38:15.655Z,1012.08
2023-02-19T07:39:15.672Z,1012.11
2023-02-19T07:40:15.641Z,1012.11
2023-02-19T07:41:15.651Z,1012.15
2023-02-19T07:42:15.614Z,1012.17
2023-02-19T07:43:15.656Z,1012.21
2023-02-19T07:44:15.590Z,1012.22
2023-02-19T07:45:15.603Z,1012.26
2023-02-19T07:46:15.574Z,1012.32
2023-02-19T07:47:15.583Z,1012.35
2023-02-19T07:48:15.567Z,1012.38
2023-02-19T07:49:15.587Z,1012.43
2023-02-19T07:50:15.528Z,1012.39
2023-02-19T07:51:15.543Z,1012.43
2023-02-19T07:52:15.511Z,1012.44
2023-02-19T07:53:15.524Z,1012.44
2023-02-19T07:54:15.490Z,1012.44
2023-02-19T07:55:15.525Z,1012.47
2023-02-19T07:56:15.469Z,1012.47
2023-02-19T07:57:15.479Z,1012.47
2023-02-19T07:58:15.447Z,1012.49
2023-02-19T07:59:15.459Z,1012.48
2023-02-19T08:00:15.435Z,1012.50
2023-02-19T08:01:15.577Z,1012.45
2023-02-19T08:02:15.411Z,1012.40
2023-02-19T08:03:15.479Z,1012.38
2023-02-19T08:04:15.391Z,1012.37
2023-02-19T08:05:15.392Z,1012.39
2023-02-19T08:06:15.372Z,1012.39
2023-02-19T08:07:15.392Z,1012.42
2023-02-19T08:08:15.350Z,1012.43
2023-02-19T08:09:15.353Z,1012.44
2023-02-19T08:10:15.319Z,1012.47
2023-02-19T08:11:15.346Z,1012.51
2023-02-19T08:12:15.299Z,1012.54
2023-02-19T08:13:15.333Z,1012.56
2023-02-19T08:14:15.279Z,1012.56
2023-02-19T08:15:15.286Z,1012.57
2023-02-19T08:16:21.843Z,1012.58
2023-02-19T08:17:15.321Z,1012.60
2023-02-19T08:18:15.238Z,1012.64
2023-02-19T08:19:15.284Z,1012.67
2023-02-19T08:20:15.218Z,1012.70
2023-02-19T08:21:15.220Z,1012.71
2023-02-19T08:22:15.195Z,1012.74
2023-02-19T08:23:15.199Z,1012.79
2023-02-19T08:24:15.180Z,1012.82
2023-02-19T08:25:15.192Z,1012.80
2023-02-19T08:26:15.165Z,1012.79
2023-02-19T08:27:15.159Z,1012.79
2023-02-19T08:28:15.129Z,1012.79
2023-02-19T08:29:15.142Z,1012.80
2023-02-19T08:30:15.174Z,1012.81
2023-02-19T08:31:15.563Z,1012.79
2023-02-19T08:32:15.121Z,1012.77
2023-02-19T08:33:15.100Z,1012.78
2023-02-19T08:34:15.064Z,1012.80
2023-02-19T08:35:15.083Z,1012.81
2023-02-19T08:36:15.056Z,1012.79
2023-02-19T08:37:15.073Z,1012.78
2023-02-19T08:38:15.018Z,1012.77
2023-02-19T08:39:15.040Z,1012.75
2023-02-19T08:40:14.997Z,1012.71
2023-02-19T08:41:15.134Z,1012.70
2023-02-19T08:42:14.983Z,1012.71
2023-02-19T08:43:15.012Z,1012.72
2023-02-19T08:44:14.963Z,1012.77
2023-02-19T08:45:14.964Z,1012.80
2023-02-19T08:46:15.009Z,1012.81
2023-02-19T08:47:14.951Z,1012.81
2023-02-19T08:48:14.909Z,1012.84
2023-02-19T08:49:14.942Z,1012.87
2023-02-19T08:50:14.891Z,1012.87
2023-02-19T08:51:15.164Z,1012.92
2023-02-19T08:52:14.869Z,1012.91
2023-02-19T08:53:14.878Z,1012.92
2023-02-19T08:54:14.861Z,1012.95
2023-02-19T08:55:14.879Z,1012.92
2023-02-19T08:56:14.832Z,1012.96
2023-02-19T08:57:14.833Z,1012.93
2023-02-19T08:58:14.803Z,1012.93
2023-02-19T08:59:14.812Z,1012.94
2023-02-19T09:00:14.789Z,1012.97
2023-02-19T09:01:15.334Z,1013.00
2023-02-19T09:02:14.760Z,1012.94
2023-02-19T09:03:14.772Z,1012.94
2023-02-19T09:04:14.811Z,1012.93
2023-02-19T09:05:14.762Z,1012.93
2023-02-19T09:06:14.716Z,1012.92
2023-02-19T09:07:14.751Z,1012.95
2023-02-19T09:08:14.705Z,1012.98
2023-02-19T09:09:14.704Z,1013.00
2023-02-19T09:10:14.683Z,1013.04
2023-02-19T09:11:15.053Z,1013.06
2023-02-19T09:12:14.653Z,1013.09
2023-02-19T09:13:14.692Z,1013.14
2023-02-19T09:14:14.630Z,1013.13
2023-02-19T09:15:14.651Z,1013.15
2023-02-19T09:16:14.608Z,1013.15
2023-02-19T09:17:15.311Z,1013.16
2023-02-19T09:18:14.595Z,1013.15
2023-02-19T09:19:14.624Z,1013.18
2023-02-19T09:20:14.591Z,1013.17
2023-02-19T09:21:14.582Z,1013.20
2023-02-19T09:22:14.563Z,1013.22
2023-02-19T09:23:14.558Z,1013.17
2023-02-19T09:24:14.544Z,1013.21
2023-02-19T09:25:14.562Z,1013.22
2023-02-19T09:26:14.560Z,1013.20
2023-02-19T09:27:14.521Z,1013.21
2023-02-19T09:28:14.507Z,1013.24
2023-02-19T09:29:14.496Z,1013.27
2023-02-19T09:30:14.585Z,1013.29
2023-02-19T09:31:15.075Z,1013.34
2023-02-19T09:32:14.492Z,1013.35
2023-02-19T09:33:14.437Z,1013.39
2023-02-19T09:34:14.443Z,1013.36
2023-02-19T09:35:14.430Z,1013.43
2023-02-19T09:36:14.439Z,1013.45
2023-02-19T09:37:14.405Z,1013.44
2023-02-19T09:38:14.409Z,1013.45
2023-02-19T09:39:14.369Z,1013.47
2023-02-19T09:40:14.402Z,1013.50
2023-02-19T09:41:14.368Z,1013.52
2023-02-19T09:42:14.358Z,1013.57
2023-02-19T09:43:14.362Z,1013.64
2023-02-19T09:44:14.342Z,1013.74
2023-02-19T09:45:14.341Z,1013.80
2023-02-19T09:46:14.335Z,1013.86
2023-02-19T09:47:14.299Z,1013.94
2023-02-19T09:48:14.302Z,1013.92
2023-02-19T09:49:14.289Z,1013.96
2023-02-19T09:50:14.505Z,1014.01
2023-02-19T09:51:14.270Z,1014.03
2023-02-19T09:52:14.266Z,1014.03
2023-02-19T09:53:14.227Z,1014.01
2023-02-19T09:54:14.237Z,1014.10
2023-02-19T09:55:14.587Z,1014.20
2023-02-19T09:56:14.216Z,1014.21
2023-02-19T09:57:14.180Z,1014.26
2023-02-19T09:58:14.370Z,1014.33
2023-02-19T09:59:14.157Z,1014.37
2023-02-19T10:00:15.092Z,1014.39
2023-02-19T10:01:14.411Z,1014.37
2023-02-19T10:02:14.161Z,1014.41
2023-02-19T10:03:14.115Z,1014.46
2023-02-19T10:04:14.132Z,1014.48
2023-02-19T10:05:14.134Z,1014.50
2023-02-19T10:06:14.112Z,1014.51
2023-02-19T10:07:14.114Z,1014.52
2023-02-19T10:08:14.092Z,1014.50
2023-02-19T10:09:14.046Z,1014.51
2023-02-19T10:10:14.075Z,1014.55
2023-02-19T10:11:14.051Z,1014.58
2023-02-19T10:12:14.042Z,1014.62
2023-02-19T10:13:14.044Z,1014.66
2023-02-19T10:14:14.017Z,1014.68
2023-02-19T10:15:13.990Z,1014.68
2023-02-19T10:16:14.032Z,1014.68
2023-02-19T10:17:13.968Z,1014.72
2023-02-19T10:18:13.980Z,1014.73
2023-02-19T10:19:13.962Z,1014.77
2023-02-19T10:20:13.952Z,1014.81
2023-02-19T10:21:13.920Z,1014.85
2023-02-19T10:22:13.944Z,1014.90
2023-02-19T10:23:13.896Z,1014.94
2023-02-19T10:24:13.909Z,1014.98
2023-02-19T10:25:13.903Z,1014.99
2023-02-19T10:26:13.890Z,1015.01
2023-02-19T10:27:13.854Z,1015.06
2023-02-19T10:28:13.868Z,1015.12
2023-02-19T10:29:13.847Z,1015.12
2023-02-19T10:30:13.888Z,1015.14
2023-02-19T10:31:14.242Z,1015.16
2023-02-19T10:32:13.856Z,1015.19
2023-02-19T10:33:13.794Z,1015.18
2023-02-19T10:34:13.816Z,1015.19
2023-02-19T10:35:13.774Z,1015.20
2023-02-19T10:36:13.784Z,1015.22
2023-02-19T10:37:13.781Z,1015.26
2023-02-19T10:38:13.763Z,1015.29
2023-02-19T10:39:13.733Z,1015.32
2023-02-19T10:40:13.749Z,1015.33
2023-02-19T10:41:13.714Z,1015.35
2023-02-19T10:42:13.722Z,1015.38
2023-02-19T10:43:13.705Z,1015.41
2023-02-19T10:44:13.713Z,1015.43
2023-02-19T10:45:13.670Z,1015.44
2023-02-19T10:46:13.704Z,1015.43
2023-02-19T10:47:13.648Z,1015.42
2023-02-19T10:48:13.658Z,1015.37
2023-02-19T10:49:13.653Z,1015.35
2023-02-19T10:50:13.653Z,1015.39
2023-02-19T10:51:13.861Z,1015.41
2023-02-19T10:52:13.617Z,1015.43
2023-02-19T10:53:13.585Z,1015.39
2023-02-19T10:54:13.594Z,1015.35
2023-02-19T10:55:13.574Z,1015.36
2023-02-19T10:56:13.576Z,1015.44
2023-02-19T10:57:13.564Z,1015.52
2023-02-19T10:58:13.552Z,1015.58
2023-02-19T10:59:13.518Z,1015.63
2023-02-19T11:00:13.537Z,1015.62
2023-02-19T11:01:13.518Z,1015.59
2023-02-19T11:02:13.510Z,1015.56
2023-02-19T11:03:13.481Z,1015.52
2023-02-19T11:04:13.558Z,1015.51
2023-02-19T11:05:13.462Z,1015.54
2023-02-19T11:06:13.465Z,1015.58
2023-02-19T11:07:13.447Z,1015.61
2023-02-19T11:08:13.445Z,1015.61
2023-02-19T11:09:13.424Z,1015.62
2023-02-19T11:10:13.424Z,1015.64
2023-02-19T11:11:13.393Z,1015.65
2023-02-19T11:12:13.450Z,1015.66
2023-02-19T11:13:13.424Z,1015.66
2023-02-19T11:14:13.416Z,1015.66
2023-02-19T11:15:13.356Z,1015.68
2023-02-19T11:16:13.415Z,1015.72
2023-02-19T11:17:13.332Z,1015.76
2023-02-19T11:18:13.343Z,1015.77
2023-02-19T11:19:13.337Z,1015.75
2023-02-19T11:20:13.321Z,1015.71
2023-02-19T11:21:13.316Z,1015.70
2023-02-19T11:22:13.296Z,1015.71
2023-02-19T11:23:13.262Z,1015.71
2023-02-19T11:24:13.275Z,1015.72
2023-02-19T11:25:13.254Z,1015.72
2023-02-19T11:26:13.262Z,1015.72
2023-02-19T11:27:13.221Z,1015.74
2023-02-19T11:28:13.243Z,1015.74
2023-02-19T11:29:13.201Z,1015.74
2023-02-19T11:30:13.237Z,1015.75
2023-02-19T11:31:13.670Z,1015.76
2023-02-19T11:32:13.290Z,1015.75
2023-02-19T11:33:13.157Z,1015.73
2023-02-19T11:34:13.169Z,1015.73
2023-02-19T11:35:13.141Z,1015.75
2023-02-19T11:36:13.148Z,1015.77
2023-02-19T11:37:13.136Z,1015.79
2023-02-19T11:38:13.137Z,1015.80
2023-02-19T11:39:13.098Z,1015.81
2023-02-19T11:40:13.119Z,1015.81
2023-02-19T11:41:13.405Z,1015.82
2023-02-19T11:42:13.092Z,1015.82
2023-02-19T11:43:13.074Z,1015.83
2023-02-19T11:44:13.078Z,1015.84
2023-02-19T11:45:13.040Z,1015.84
2023-02-19T11:46:13.097Z,1015.85
2023-02-19T11:47:13.022Z,1015.87
2023-02-19T11:48:13.028Z,1015.88
2023-02-19T11:49:13.006Z,1015.87
2023-02-19T11:50:13.007Z,1015.85
2023-02-19T11:51:13.274Z,1015.82
2023-02-19T11:52:12.989Z,1015.80
2023-02-19T11:53:12.953Z,1015.79
2023-02-19T11:54:12.964Z,1015.79
2023-02-19T11:55:12.954Z,1015.78
2023-02-19T11:56:12.951Z,1015.78
2023-02-19T11:57:12.943Z,1015.78
2023-02-19T11:58:12.920Z,1015.79
2023-02-19T11:59:12.893Z,1015.79
2023-02-19T12:00:12.908Z,1015.78
2023-02-19T12:01:13.227Z,1015.76
2023-02-19T12:02:12.952Z,1015.73
2023-02-19T12:03:12.850Z,1015.71
2023-02-19T12:04:12.931Z,1015.70
2023-02-19T12:05:13.079Z,1015.70